STAZIONE METEO DI BARCELLONA P.G. CENTRO
Dati campionati ogni minuto da Consolle Davis Vantage Pro 2
ed inviati alla rete mediante server Anemos WDS5 wview



Barcellona P.G. Centro more information Barcellona P.G. Centro


Golfo di Patti more information Golfo di Patti


Thunder radar more information blitzortung!


Rain radar  rain snow radar


altri nostri siti meteo:

Rischio IncendiRischio Incendi

Rete NOAA MADIS

Italia Meteo Network

PomeziameteoSito web di stazione meteo amica



Vento Da: 17-04-2021 06:00 Fino a: 18-04-2021 00:59 Avvertimento per: Vento Livello: Giallo info button
english:
No Special Awareness Required

BE AWARE, keep up to date with the latest weather forecast. Expect some minor disruption to outdoor activities

italiano:
aree costiere ioniche

STARE (RIMANERE) ATTENTI. Tenersi aggiornati con le previsioni del tempo più recenti. Aspettarsi alcuni disagi minori per le attività all'aria aperta. 

Report METAR

   
LICF - Messina, Italy
Distanza dalla stazione: NE 30 km
Dati ricevuti: 17-04-2021 03:55
Sereno  
Sereno  
   Vento: calma
Vento: calma
Temperatura: 10°C
P.to Rugiada: 6°C
Umidità: 76%
Barometro: 1007 hPa
Visibilità: oltre 10 km
dettagli cloud: Sereno
LICF 170155Z 00000KT CAVOK 10/06 Q1007 RMK SKC QUK / QUL / VIS MAR 12 KM MON INVIS NC VIS MIN 9999
LICR - Reggio Calabria, Italy
Distanza dalla stazione: SE 39 km
Dati ricevuti: 17-04-2021 04:20
Sereno  
Sereno  
   Vento: NE 13 km/h
Vento: NE 13 km/h
Temperatura: 10°C
Temperatura Vento: 8°C
P.to Rugiada: 4°C
Umidità: 67%
Barometro: 1008 hPa
Nuvole: Sereno
Visibilità: oltre 10 km
dettagli cloud: Sereno
LICR 170220Z AUTO 06007KT 9999 NCD 10/04 Q1008
LICC - Catania/Fontanar, Italy
Distanza dalla stazione: S 77 km
Dati ricevuti: 17-04-2021 04:20
Poche nuvole  
Poche nuvole  
   Vento: West 7.4 km/h
Vento: West 7.4 km/h
Temperatura: 10°C
Temperatura Vento: 9°C
P.to Rugiada: 6°C
Umidità: 76%
Barometro: 1007 hPa
Nuvole: Poche nuvole
Visibilità: oltre 10 km
dettagli cloud: Poche nuvole 1219.2 m
LICC 170220Z 27004KT 9999 FEW040 10/06 Q1007
LICZ - Sigonella (nas), Italy
Distanza dalla stazione: S 89 km
Dati ricevuti: 17-04-2021 03:55
Molto nuvoloso  
Molto nuvoloso  
   Vento: West 11.1 km/h
Vento: West 11.1 km/h
Temperatura: 10°C
Temperatura Vento: 8°C
P.to Rugiada: 6°C
Umidità: 76%
Barometro: 1008 hPa
Nuvole: Molto nuvoloso
Visibilità: oltre 10 km
dettagli cloud: Poche nuvole 1219.2 m,
Molto nuvoloso 1828.8 m
LICZ 170155Z 27006KT 9999 FEW040 BKN060 10/06 Q1008 RMK BKN VIS MIN 9999 WIND THR28 28007KT WIND THR10 29005KT A2979 BLU
LICA - Lamezia Terme, Italy
Distanza dalla stazione: NE 122 km
Dati ricevuti: 17-04-2021 04:20
Sereno  
Sereno  
   Vento: NE 9.3 km/h
Vento: NE 9.3 km/h
Temperatura: 9°C
Temperatura Vento: 8°C
P.to Rugiada: 2°C
Umidità: 62%
Barometro: 1008 hPa
Nuvole: Sereno
Visibilità: oltre 10 km
dettagli cloud: Sereno
LICA 170220Z AUTO 03005KT 350V080 9999 NCD 09/02 Q1008
LICB - Comiso, Italy
Distanza dalla stazione: S 138 km
Dati ricevuti: 17-04-2021 04:20
Sereno  
Sereno  
   Vento: Variabile 5.6 km/h
Vento: Variabile 5.6 km/h
Temperatura: 10°C
Temperatura Vento: 9°C
P.to Rugiada: 6°C
Umidità: 76%
Barometro: 1007 hPa
Nuvole: Sereno
Visibilità: oltre 10 km
dettagli cloud: Sereno
LICB 170220Z AUTO VRB03KT 9999 NCD 10/06 Q1007

Script sviluppato da  Saratoga-weather.org Adattato per il modello da  Weerstation Leuven

Potete trovare le nostre info meteo anche a:

European Weather Network

Weather Underground

AWEKAS

Citizen Weather Observer Program (CWOP)

HAMweather, WeatherForYou, PWS Weather

Attrezzature usate:

Stazione meteo
Davis VP2

Programma gestore dati meteo
WVIEW

Server per i dati meteo
WDS5 Ecoblack

Davis VP2

WVIEW

WDS5 Ecoblack